Time;durP1;ratioP1;P1;durP2;ratioP2;P2;SDS_P1;SDS_P2;PMS_P1;PMS_P2;Temp;Humidity;BMP_temperature;BMP_pressure;BME280_temperature;BME280_humidity;BME280_pressure;Samples;Min_cycle;Max_cycle;Signal;HPM_P1;HPM_P2
2022/02/20 00:00:54;;;;;;;10.90;3.03;;;3.80;99.90;;;;;;2603885;54;20566;31
2022/02/20 00:03:29;;;;;;;10.95;3.38;;;3.90;99.90;;;;;;2603348;54;20034;31
2022/02/20 00:06:08;;;;;;;7.32;3.25;;;3.90;99.90;;;;;;2603868;54;20109;31
2022/02/20 00:08:42;;;;;;;7.95;3.20;;;3.90;99.90;;;;;;2602937;54;20845;31
2022/02/20 00:11:16;;;;;;;9.45;3.47;;;3.90;99.90;;;;;;2602825;54;20035;31
2022/02/20 00:13:52;;;;;;;7.18;2.83;;;3.90;99.90;;;;;;2603776;54;20889;31
2022/02/20 00:16:26;;;;;;;13.05;3.92;;;3.90;99.90;;;;;;2702199;39;20493;31
2022/02/20 00:19:01;;;;;;;12.90;3.40;;;3.90;99.90;;;;;;2621423;46;20032;31
2022/02/20 00:21:38;;;;;;;10.10;3.38;;;3.80;99.90;;;;;;2603551;54;20874;31
2022/02/20 00:24:12;;;;;;;9.57;2.90;;;3.80;99.90;;;;;;2603473;54;20907;31
2022/02/20 00:26:47;;;;;;;8.55;2.85;;;3.90;99.90;;;;;;2602916;54;20161;31
2022/02/20 00:29:21;;;;;;;9.07;2.85;;;3.90;99.90;;;;;;2602751;54;20910;31
2022/02/20 00:31:55;;;;;;;9.00;3.10;;;3.90;99.90;;;;;;2603545;54;20755;31
2022/02/20 00:34:29;;;;;;;9.10;2.75;;;3.90;99.90;;;;;;2603518;54;20878;31
2022/02/20 00:37:09;;;;;;;9.65;3.08;;;3.90;99.90;;;;;;2603685;54;20023;31
2022/02/20 00:39:43;;;;;;;8.70;2.95;;;3.90;99.90;;;;;;2603480;54;20037;31
2022/02/20 00:42:17;;;;;;;11.07;2.70;;;3.90;99.90;;;;;;2603311;54;20994;31
2022/02/20 00:44:51;;;;;;;9.05;2.83;;;3.90;99.90;;;;;;2621980;46;20825;31
2022/02/20 00:47:25;;;;;;;6.25;2.10;;;4.00;99.90;;;;;;2603731;54;21403;31
2022/02/20 00:50:00;;;;;;;10.90;2.63;;;3.90;99.90;;;;;;2603410;54;20081;31
2022/02/20 00:52:37;;;;;;;6.68;1.77;;;4.00;99.90;;;;;;2603418;54;20030;31
2022/02/20 00:55:12;;;;;;;7.88;1.73;;;4.00;99.90;;;;;;2602809;54;20923;31
2022/02/20 00:57:46;;;;;;;4.90;1.90;;;4.00;99.90;;;;;;2701355;39;20534;31
2022/02/20 01:00:21;;;;;;;8.43;1.73;;;4.00;99.90;;;;;;2603470;54;20105;31
2022/02/20 01:02:55;;;;;;;10.40;1.90;;;4.00;99.90;;;;;;2602856;54;20786;31
2022/02/20 01:05:30;;;;;;;6.35;1.63;;;4.10;99.90;;;;;;2621181;46;20033;31
2022/02/20 01:08:08;;;;;;;6.53;2.15;;;4.10;99.90;;;;;;2701985;39;20549;31
2022/02/20 01:10:45;;;;;;;5.75;2.00;;;4.10;99.90;;;;;;2621975;46;20057;31
2022/02/20 01:13:20;;;;;;;9.45;2.03;;;4.10;99.90;;;;;;2603510;54;20919;31
2022/02/20 01:15:54;;;;;;;8.70;2.50;;;4.20;99.90;;;;;;2603423;54;20853;31
2022/02/20 01:18:29;;;;;;;6.32;2.35;;;4.10;99.90;;;;;;2621667;46;20113;31
2022/02/20 01:21:03;;;;;;;7.45;2.70;;;4.10;99.90;;;;;;2603564;54;20028;31
2022/02/20 01:23:40;;;;;;;6.50;2.35;;;4.10;99.90;;;;;;2603347;54;20031;31
2022/02/20 01:26:15;;;;;;;11.80;2.70;;;4.10;99.90;;;;;;2603375;54;20030;31
2022/02/20 01:28:49;;;;;;;9.18;2.55;;;4.00;99.90;;;;;;2603274;54;20136;31
2022/02/20 01:31:24;;;;;;;8.87;2.67;;;4.00;99.90;;;;;;2603303;54;20028;31
2022/02/20 01:33:59;;;;;;;7.45;2.45;;;4.00;99.90;;;;;;2603522;54;20033;31
2022/02/20 01:36:33;;;;;;;8.98;2.97;;;4.00;99.90;;;;;;2603349;54;20089;31
2022/02/20 01:39:13;;;;;;;6.20;2.10;;;4.00;99.90;;;;;;2603574;54;20030;31
2022/02/20 01:41:48;;;;;;;6.75;2.40;;;4.00;99.90;;;;;;2603446;54;20833;31
2022/02/20 01:44:22;;;;;;;10.75;3.05;;;4.00;99.90;;;;;;2791798;31;20557;31
2022/02/20 01:47:04;;;;;;;9.10;1.85;;;4.00;99.90;;;;;;2603003;54;20037;31
2022/02/20 01:49:42;;;;;;;6.20;1.80;;;4.10;99.90;;;;;;2621985;46;25133;31
2022/02/20 01:52:16;;;;;;;5.97;2.63;;;4.10;99.90;;;;;;2603321;54;20023;31
2022/02/20 01:54:54;;;;;;;7.78;2.05;;;4.10;99.90;;;;;;2603377;54;20037;31
2022/02/20 01:57:30;;;;;;;8.27;1.98;;;4.10;99.90;;;;;;2603396;54;20956;31
2022/02/20 02:00:37;;;;;;;11.60;2.93;;;4.10;99.90;;;;;;2603111;54;20033;31
2022/02/20 02:03:33;;;;;;;10.48;2.53;;;4.10;99.90;;;;;;2603581;54;20026;31
2022/02/20 02:06:16;;;;;;;7.97;2.67;;;4.20;99.90;;;;;;2603425;54;20064;31
2022/02/20 02:08:51;;;;;;;9.88;2.17;;;4.10;99.90;;;;;;2603242;54;20132;31
2022/02/20 02:11:53;;;;;;;9.20;2.03;;;4.10;99.90;;;;;;2603079;54;20033;31
2022/02/20 02:14:54;;;;;;;7.72;2.33;;;4.10;99.90;;;;;;2603089;54;20026;31
2022/02/20 02:17:38;;;;;;;10.93;2.47;;;4.10;99.90;;;;;;2603338;54;20030;31
2022/02/20 02:20:32;;;;;;;11.00;2.20;;;4.10;99.90;;;;;;2603298;54;20029;31
2022/02/20 02:23:21;;;;;;;7.20;2.22;;;4.10;99.90;;;;;;2603282;54;20770;31
2022/02/20 02:26:15;;;;;;;8.38;1.90;;;4.00;99.90;;;;;;2621969;46;20863;31
2022/02/20 02:28:59;;;;;;;7.45;2.15;;;4.10;99.90;;;;;;2603062;54;20026;31
2022/02/20 02:31:33;;;;;;;7.17;1.57;;;4.10;99.90;;;;;;2621385;47;20078;31
2022/02/20 02:34:12;;;;;;;8.48;1.98;;;4.10;99.90;;;;;;2603581;54;20333;31
2022/02/20 02:36:49;;;;;;;7.10;2.78;;;4.20;99.90;;;;;;2603127;54;20826;31
2022/02/20 02:39:26;;;;;;;6.20;1.88;;;4.20;99.90;;;;;;2603205;54;20042;31
2022/02/20 02:42:02;;;;;;;9.95;3.15;;;4.20;99.90;;;;;;2603193;54;20116;31
2022/02/20 02:44:37;;;;;;;8.20;2.03;;;4.20;99.90;;;;;;2603240;54;20035;31
2022/02/20 02:47:13;;;;;;;4.50;1.65;;;4.20;99.90;;;;;;2603050;54;20043;31
2022/02/20 02:49:48;;;;;;;7.50;2.08;;;4.30;99.90;;;;;;2603178;54;20113;31
2022/02/20 02:52:23;;;;;;;5.40;1.83;;;4.30;99.90;;;;;;2603050;54;20030;31
2022/02/20 02:55:01;;;;;;;6.90;2.00;;;4.30;99.90;;;;;;2603052;54;20030;31
2022/02/20 02:57:36;;;;;;;3.95;1.65;;;4.30;99.90;;;;;;2603161;54;20046;31
2022/02/20 03:00:12;;;;;;;5.70;2.27;;;4.40;99.90;;;;;;2603169;54;20872;31
2022/02/20 03:02:46;;;;;;;4.30;1.52;;;4.40;99.90;;;;;;2603258;54;20153;31
2022/02/20 03:05:20;;;;;;;8.43;1.73;;;4.40;99.90;;;;;;2603142;54;20893;31
2022/02/20 03:07:56;;;;;;;5.55;1.40;;;4.50;99.90;;;;;;2603154;54;20828;31
2022/02/20 03:10:34;;;;;;;5.15;1.45;;;4.50;99.90;;;;;;2602993;54;20034;31
2022/02/20 03:13:09;;;;;;;3.47;1.42;;;4.40;99.90;;;;;;2603154;54;20034;31
2022/02/20 03:15:47;;;;;;;3.90;1.65;;;4.50;99.90;;;;;;2603199;54;20055;31
2022/02/20 03:18:23;;;;;;;6.53;1.70;;;4.50;99.90;;;;;;2603057;54;20061;31
2022/02/20 03:20:57;;;;;;;8.63;1.67;;;4.50;99.90;;;;;;2602882;54;20037;31
2022/02/20 03:23:31;;;;;;;5.55;1.60;;;4.60;99.90;;;;;;2603019;54;20870;31
2022/02/20 03:26:12;;;;;;;6.13;1.92;;;4.60;99.90;;;;;;2602769;54;20056;31
2022/02/20 03:28:47;;;;;;;4.15;1.75;;;4.60;99.90;;;;;;2602944;54;20098;31
2022/02/20 03:31:24;;;;;;;5.20;1.48;;;4.50;99.90;;;;;;2602838;54;20962;31
2022/02/20 03:34:00;;;;;;;8.48;1.63;;;4.60;99.90;;;;;;2603157;54;20057;31
2022/02/20 03:36:36;;;;;;;5.43;1.70;;;4.60;99.90;;;;;;2602977;54;20911;31
2022/02/20 03:39:22;;;;;;;6.63;1.60;;;4.60;99.90;;;;;;2603367;54;20033;31
2022/02/20 03:42:02;;;;;;;6.70;2.00;;;4.70;99.90;;;;;;2603683;54;19973;31
2022/02/20 03:44:54;;;;;;;5.00;1.55;;;4.70;99.90;;;;;;2621978;46;20074;31
2022/02/20 03:47:30;;;;;;;7.97;1.88;;;4.70;99.90;;;;;;2603684;54;20033;31
2022/02/20 03:50:09;;;;;;;6.70;1.80;;;4.70;99.90;;;;;;2603697;54;20799;31
2022/02/20 03:52:47;;;;;;;7.40;1.57;;;4.70;99.90;;;;;;2603898;54;20108;31
2022/02/20 03:55:28;;;;;;;6.15;1.85;;;4.70;99.90;;;;;;2622304;46;20890;31
2022/02/20 03:58:07;;;;;;;4.95;1.50;;;4.70;99.90;;;;;;2603920;54;20030;31
2022/02/20 04:00:47;;;;;;;6.35;1.50;;;4.70;99.90;;;;;;2603628;54;20767;31
2022/02/20 04:03:41;;;;;;;7.07;2.13;;;4.80;99.90;;;;;;2603747;54;20931;31
2022/02/20 04:06:16;;;;;;;5.53;2.78;;;4.80;99.90;;;;;;2603655;54;20926;31
2022/02/20 04:08:56;;;;;;;4.75;1.27;;;4.80;99.90;;;;;;2603898;54;20874;31
2022/02/20 04:11:31;;;;;;;12.07;1.58;;;4.80;99.90;;;;;;2603389;54;20045;31
2022/02/20 04:14:14;;;;;;;7.13;2.15;;;4.70;99.90;;;;;;2603485;54;20013;31
2022/02/20 04:17:05;;;;;;;7.82;1.35;;;4.60;99.90;;;;;;2603298;54;20836;31
2022/02/20 04:19:40;;;;;;;5.97;1.38;;;4.70;99.90;;;;;;2603686;54;20026;31
2022/02/20 04:22:15;;;;;;;6.83;1.87;;;4.70;99.90;;;;;;2603566;54;20050;31
2022/02/20 04:24:50;;;;;;;6.55;1.00;;;4.40;99.90;;;;;;2603782;54;20022;31
2022/02/20 04:27:26;;;;;;;4.13;1.60;;;4.30;99.90;;;;;;2603841;54;20863;31
2022/02/20 04:30:03;;;;;;;5.75;1.20;;;4.30;99.90;;;;;;2603567;54;20105;31
2022/02/20 04:32:39;;;;;;;3.28;1.15;;;4.10;99.90;;;;;;2603638;54;20038;31
2022/02/20 04:35:13;;;;;;;4.72;1.58;;;4.00;99.90;;;;;;2603729;54;20030;31
2022/02/20 04:37:49;;;;;;;3.53;1.25;;;3.70;99.90;;;;;;2773642;31;20545;31
2022/02/20 04:40:23;;;;;;;7.70;1.65;;;3.70;99.90;;;;;;2621681;46;20026;31
2022/02/20 04:43:04;;;;;;;5.90;1.45;;;3.60;99.90;;;;;;2603687;54;20032;31
2022/02/20 04:45:42;;;;;;;4.30;1.27;;;3.50;99.90;;;;;;2720376;39;20473;31
2022/02/20 04:48:22;;;;;;;8.13;1.60;;;3.50;99.90;;;;;;2603414;54;20026;31
2022/02/20 04:50:56;;;;;;;;;;;3.30;99.90;;;;;;2603726;54;20029;31
2022/02/20 04:53:30;;;;;;;3.70;1.05;;;3.20;99.90;;;;;;2702220;39;22086;31
2022/02/20 04:56:05;;;;;;;5.13;1.83;;;3.10;99.90;;;;;;2603242;54;20875;31
2022/02/20 04:58:43;;;;;;;6.47;1.60;;;3.10;99.90;;;;;;2603255;54;20572;31
2022/02/20 05:01:31;;;;;;;9.55;1.45;;;3.00;99.90;;;;;;2603721;54;20026;31
2022/02/20 05:04:31;;;;;;;4.20;1.40;;;2.90;99.90;;;;;;2603411;54;20030;31
2022/02/20 05:07:08;;;;;;;7.75;1.40;;;2.90;99.90;;;;;;2603091;54;20057;31
2022/02/20 05:09:45;;;;;;;5.57;1.50;;;2.90;99.90;;;;;;2603554;54;20889;31
2022/02/20 05:12:19;;;;;;;6.15;1.48;;;2.90;99.90;;;;;;2603298;54;20766;31
2022/02/20 05:14:55;;;;;;;8.88;1.88;;;3.00;99.90;;;;;;2603412;54;20097;31
2022/02/20 05:17:45;;;;;;;4.45;1.55;;;2.90;99.90;;;;;;2603291;54;20823;31
2022/02/20 05:20:21;;;;;;;9.00;2.67;;;2.90;99.90;;;;;;2603451;54;20026;31
2022/02/20 05:22:59;;;;;;;8.40;4.50;;;2.90;99.90;;;;;;2621969;46;20161;31
2022/02/20 05:25:33;;;;;;;12.48;6.70;;;2.90;99.90;;;;;;2603371;54;20038;31
2022/02/20 05:28:07;;;;;;;12.05;7.55;;;2.90;99.90;;;;;;2603510;54;20093;31
2022/02/20 05:30:45;;;;;;;11.00;8.15;;;2.90;99.90;;;;;;2603470;54;20121;31
2022/02/20 05:33:30;;;;;;;9.05;5.10;;;2.90;99.90;;;;;;2701834;39;20583;31
2022/02/20 05:36:04;;;;;;;8.95;3.25;;;2.90;99.90;;;;;;2603442;54;20561;31
2022/02/20 05:39:01;;;;;;;5.10;2.55;;;2.90;99.90;;;;;;2603322;54;20660;31
2022/02/20 05:41:37;;;;;;;5.90;2.15;;;2.90;99.90;;;;;;2603305;54;20951;31
2022/02/20 05:44:12;;;;;;;5.13;1.60;;;2.90;99.90;;;;;;2603393;54;20549;31
2022/02/20 05:46:56;;;;;;;5.25;1.60;;;2.90;99.90;;;;;;2622168;46;19938;31
2022/02/20 05:49:36;;;;;;;3.80;1.90;;;2.90;99.90;;;;;;2773235;31;20555;31
2022/02/20 05:52:11;;;;;;;4.75;1.95;;;3.00;99.90;;;;;;2603455;54;20038;31
2022/02/20 05:54:50;;;;;;;3.20;1.43;;;3.00;99.90;;;;;;2603275;54;20045;31
2022/02/20 05:57:23;;;;;;;4.80;1.67;;;3.00;99.90;;;;;;2720267;39;21249;31
2022/02/20 06:00:04;;;;;;;4.78;1.77;;;3.00;99.90;;;;;;2603180;54;20920;31
2022/02/20 06:02:48;;;;;;;6.05;2.13;;;3.10;99.90;;;;;;2602869;54;20042;31
2022/02/20 06:05:25;;;;;;;2.80;1.35;;;3.10;99.90;;;;;;2621787;46;20100;31
2022/02/20 06:08:09;;;;;;;;;;;3.10;99.90;;;;;;2603456;54;20042;31
2022/02/20 06:10:57;;;;;;;2.45;1.25;;;3.10;99.90;;;;;;2603244;54;20739;31
2022/02/20 06:13:51;;;;;;;1.95;1.25;;;3.10;99.90;;;;;;2621380;46;20027;31
2022/02/20 06:16:51;;;;;;;1.90;1.20;;;3.10;99.90;;;;;;2603185;54;20961;31
2022/02/20 06:19:44;;;;;;;3.47;1.40;;;3.10;99.90;;;;;;2603409;54;20042;31
2022/02/20 06:22:53;;;;;;;2.42;1.50;;;3.10;99.90;;;;;;2603270;54;20101;31
2022/02/20 06:25:33;;;;;;;2.40;1.20;;;3.10;99.90;;;;;;2701922;39;21018;31
2022/02/20 06:28:19;;;;;;;2.30;1.20;;;3.20;99.90;;;;;;2603187;54;20027;31
2022/02/20 06:30:54;;;;;;;3.15;0.95;;;3.10;99.90;;;;;;2603144;54;20101;31
2022/02/20 06:33:32;;;;;;;1.05;0.50;;;3.20;99.90;;;;;;2603300;54;20161;31
2022/02/20 06:36:12;;;;;;;1.92;0.63;;;3.20;99.90;;;;;;2621666;47;20157;31
2022/02/20 06:38:53;;;;;;;1.13;0.57;;;3.20;99.90;;;;;;2701554;39;20469;31
2022/02/20 06:41:29;;;;;;;1.20;0.50;;;3.10;99.90;;;;;;2773151;31;20494;31
2022/02/20 06:44:05;;;;;;;1.88;0.50;;;3.20;99.90;;;;;;2603140;54;20916;31
2022/02/20 06:46:59;;;;;;;1.33;0.70;;;3.10;99.90;;;;;;2621536;47;20022;31
2022/02/20 06:49:42;;;;;;;0.70;0.50;;;3.10;99.90;;;;;;2602977;54;20015;31
2022/02/20 06:52:41;;;;;;;1.45;0.65;;;3.10;99.90;;;;;;2603274;54;20022;31
2022/02/20 06:55:40;;;;;;;;;;;3.10;99.90;;;;;;2603172;54;20084;31
2022/02/20 06:58:15;;;;;;;1.45;0.60;;;3.10;99.90;;;;;;2603124;54;20734;31
2022/02/20 07:00:50;;;;;;;1.52;0.68;;;3.10;99.90;;;;;;2602966;54;20037;31
2022/02/20 07:03:24;;;;;;;0.88;0.47;;;3.10;99.90;;;;;;2603076;54;20557;31
2022/02/20 07:05:58;;;;;;;2.65;0.60;;;3.20;99.90;;;;;;2602154;54;20985;31
2022/02/20 07:08:33;;;;;;;2.25;0.63;;;3.20;99.90;;;;;;2602908;54;20026;31
2022/02/20 07:11:12;;;;;;;1.75;0.63;;;3.20;99.90;;;;;;2603063;54;20046;31
2022/02/20 07:13:46;;;;;;;1.95;0.60;;;3.20;99.90;;;;;;2602741;54;20801;31
2022/02/20 07:16:21;;;;;;;1.10;0.60;;;3.20;99.90;;;;;;2622292;46;20030;31
2022/02/20 07:18:56;;;;;;;2.87;0.60;;;3.40;99.90;;;;;;2603837;54;20053;31
2022/02/20 07:21:31;;;;;;;1.63;0.60;;;3.30;99.90;;;;;;2603745;54;21043;31
2022/02/20 07:24:11;;;;;;;1.40;0.53;;;3.40;99.90;;;;;;2603808;54;20026;31
2022/02/20 07:26:47;;;;;;;2.05;0.60;;;3.50;99.90;;;;;;2603906;54;20251;31
2022/02/20 07:29:31;;;;;;;1.70;0.60;;;3.50;99.90;;;;;;2604150;54;20537;31
2022/02/20 07:32:05;;;;;;;0.73;0.40;;;3.50;99.90;;;;;;2604072;54;20065;31
2022/02/20 07:34:41;;;;;;;2.05;0.75;;;3.60;99.90;;;;;;2603766;54;20087;31
2022/02/20 07:37:18;;;;;;;1.43;0.40;;;3.60;99.90;;;;;;2603657;54;20026;31
2022/02/20 07:39:52;;;;;;;3.00;0.70;;;3.70;99.90;;;;;;2621989;46;20085;31
2022/02/20 07:42:26;;;;;;;1.70;0.60;;;3.70;99.90;;;;;;2603972;54;20620;31
2022/02/20 07:45:03;;;;;;;2.38;0.90;;;3.80;99.90;;;;;;2603708;54;20588;31
2022/02/20 07:47:55;;;;;;;2.20;0.65;;;3.70;99.90;;;;;;2603689;54;20912;31
2022/02/20 07:50:30;;;;;;;1.80;0.70;;;3.80;99.90;;;;;;2603715;54;20195;31
2022/02/20 07:53:05;;;;;;;1.33;0.57;;;3.80;99.90;;;;;;2603664;54;20022;31
2022/02/20 07:55:39;;;;;;;2.85;1.00;;;3.80;99.90;;;;;;2603596;54;20113;31
2022/02/20 07:58:15;;;;;;;3.13;1.00;;;3.90;99.90;;;;;;2622441;46;20040;31
2022/02/20 08:00:53;;;;;;;1.67;0.85;;;3.90;99.90;;;;;;2603872;54;20030;31
2022/02/20 08:03:26;;;;;;;2.08;1.10;;;3.90;99.90;;;;;;2702458;39;21026;31
2022/02/20 08:06:01;;;;;;;2.22;0.93;;;3.90;99.90;;;;;;2701938;39;20520;31
2022/02/20 08:08:35;;;;;;;2.40;1.38;;;4.00;99.90;;;;;;2603759;54;20109;31
2022/02/20 08:11:10;;;;;;;3.10;1.30;;;4.00;99.90;;;;;;2622209;46;20890;31
2022/02/20 08:13:45;;;;;;;8.57;4.28;;;4.00;99.90;;;;;;2603701;54;20895;31
2022/02/20 08:16:23;;;;;;;8.10;4.47;;;4.00;99.90;;;;;;2603954;54;20802;31
2022/02/20 08:19:00;;;;;;;6.78;2.75;;;4.10;99.90;;;;;;2603807;54;20238;31
2022/02/20 08:21:35;;;;;;;3.10;2.10;;;4.10;99.90;;;;;;2603778;54;20038;31
2022/02/20 08:24:09;;;;;;;6.75;2.38;;;4.10;99.90;;;;;;2603624;54;20057;31
2022/02/20 08:26:45;;;;;;;3.05;1.50;;;4.20;99.90;;;;;;2603632;54;20026;31
2022/02/20 08:29:21;;;;;;;4.00;1.98;;;4.20;99.90;;;;;;2603844;54;20023;31
2022/02/20 08:32:02;;;;;;;3.08;1.30;;;4.30;99.90;;;;;;2702244;39;20580;31
2022/02/20 08:34:36;;;;;;;3.30;1.55;;;4.20;99.90;;;;;;2603536;54;20026;31
2022/02/20 08:37:10;;;;;;;4.05;1.70;;;4.30;99.90;;;;;;2621622;46;20018;31
2022/02/20 08:39:44;;;;;;;4.90;1.60;;;4.30;99.90;;;;;;2603406;54;20901;31
2022/02/20 08:42:21;;;;;;;4.27;1.87;;;4.30;99.90;;;;;;2603876;54;20027;31
2022/02/20 08:44:57;;;;;;;3.20;1.30;;;4.30;99.90;;;;;;2773742;31;20422;31
2022/02/20 08:47:34;;;;;;;3.63;1.45;;;4.40;99.90;;;;;;2602901;54;20890;31
2022/02/20 08:50:09;;;;;;;3.80;1.80;;;4.50;99.90;;;;;;2602892;54;20034;31
2022/02/20 08:52:45;;;;;;;4.72;1.60;;;4.50;99.90;;;;;;2603487;54;20049;31
2022/02/20 08:55:24;;;;;;;4.22;2.00;;;4.50;99.90;;;;;;2603591;54;20868;31
2022/02/20 08:57:58;;;;;;;5.35;1.88;;;4.50;99.90;;;;;;2603487;54;20022;31
2022/02/20 09:00:32;;;;;;;4.63;1.83;;;4.60;99.90;;;;;;2603401;54;20809;31
2022/02/20 09:03:10;;;;;;;8.15;2.40;;;4.60;99.90;;;;;;2603699;54;20044;31
2022/02/20 09:05:44;;;;;;;4.18;2.60;;;4.70;99.90;;;;;;2622208;46;20049;31
2022/02/20 09:08:18;;;;;;;6.85;3.50;;;4.70;99.90;;;;;;2603572;54;21335;31
2022/02/20 09:10:54;;;;;;;7.60;3.50;;;4.70;99.90;;;;;;2621954;46;20026;31
2022/02/20 09:13:28;;;;;;;7.35;3.55;;;4.80;99.90;;;;;;2603404;54;20032;31
2022/02/20 09:16:03;;;;;;;4.65;2.85;;;4.80;99.90;;;;;;2603577;54;20042;31
2022/02/20 09:18:40;;;;;;;9.88;3.47;;;4.90;99.90;;;;;;2621885;46;21601;31
2022/02/20 09:21:16;;;;;;;4.57;2.67;;;4.90;99.90;;;;;;2603499;54;20093;31
2022/02/20 09:23:50;;;;;;;5.93;2.30;;;4.90;99.90;;;;;;2622217;46;20025;31
2022/02/20 09:26:24;;;;;;;3.38;2.53;;;5.00;99.90;;;;;;2602797;54;20050;31
2022/02/20 09:28:59;;;;;;;5.50;2.70;;;4.90;99.90;;;;;;2603412;54;20748;31
2022/02/20 09:31:34;;;;;;;3.95;2.50;;;5.00;99.90;;;;;;2603448;54;20809;31
2022/02/20 09:34:11;;;;;;;6.35;2.78;;;5.00;99.90;;;;;;2603419;54;20046;31
2022/02/20 09:36:47;;;;;;;5.10;2.60;;;5.10;99.90;;;;;;2622037;46;20077;31
2022/02/20 09:39:22;;;;;;;8.45;2.80;;;5.10;99.90;;;;;;2603325;54;20077;31
2022/02/20 09:42:00;;;;;;;7.93;2.88;;;5.10;99.90;;;;;;2603397;54;20930;31
2022/02/20 09:44:35;;;;;;;6.68;3.13;;;5.10;99.90;;;;;;2603465;54;20781;31
2022/02/20 09:47:10;;;;;;;6.77;3.43;;;5.20;99.90;;;;;;2603401;54;20034;31
2022/02/20 09:49:49;;;;;;;5.97;2.67;;;5.20;99.90;;;;;;2701835;39;20624;31
2022/02/20 09:52:24;;;;;;;7.47;2.65;;;5.30;99.90;;;;;;2603373;54;20909;31
2022/02/20 09:54:59;;;;;;;6.15;2.47;;;5.40;99.90;;;;;;2603177;54;20140;31
2022/02/20 09:57:35;;;;;;;12.60;4.80;;;5.50;99.90;;;;;;2603448;54;20869;31
2022/02/20 10:00:10;;;;;;;4.03;1.58;;;5.50;99.90;;;;;;2603294;54;20932;31
2022/02/20 10:02:48;;;;;;;7.20;3.30;;;5.50;99.90;;;;;;2603536;54;20022;31
2022/02/20 10:05:25;;;;;;;6.90;2.97;;;5.70;99.90;;;;;;2621246;46;20866;31
2022/02/20 10:08:01;;;;;;;6.28;2.78;;;5.80;99.90;;;;;;2621963;46;20027;31
2022/02/20 10:10:35;;;;;;;6.53;2.87;;;5.90;99.90;;;;;;2603395;54;20831;31
2022/02/20 10:13:11;;;;;;;5.20;1.90;;;6.00;99.90;;;;;;2603205;54;20031;31
2022/02/20 10:15:46;;;;;;;7.13;2.23;;;6.00;99.90;;;;;;2701648;39;20481;31
2022/02/20 10:18:53;;;;;;;10.30;3.28;;;6.00;99.90;;;;;;2603367;54;20027;31
2022/02/20 10:21:49;;;;;;;11.85;3.45;;;6.00;99.90;;;;;;2702144;39;21010;31
2022/02/20 10:24:41;;;;;;;6.07;3.10;;;5.90;99.90;;;;;;2702210;39;20986;31
2022/02/20 10:27:52;;;;;;;7.93;2.53;;;5.90;99.90;;;;;;2603381;54;20034;31
2022/02/20 10:30:50;;;;;;;8.50;2.73;;;5.90;99.90;;;;;;2603022;54;19942;31
2022/02/20 10:33:26;;;;;;;5.75;2.70;;;6.00;99.90;;;;;;2603354;54;20262;31
2022/02/20 10:36:00;;;;;;;3.85;2.10;;;5.90;99.90;;;;;;2603021;54;20022;31
2022/02/20 10:38:38;;;;;;;6.85;2.63;;;6.00;99.90;;;;;;2603064;54;20034;31
2022/02/20 10:41:13;;;;;;;5.25;2.55;;;6.00;99.90;;;;;;2603314;54;20034;31
2022/02/20 10:43:49;;;;;;;5.85;2.75;;;6.00;99.90;;;;;;2602851;54;20022;31
2022/02/20 10:46:23;;;;;;;8.18;2.40;;;6.10;99.90;;;;;;2621349;47;20046;31
2022/02/20 10:48:58;;;;;;;4.82;2.45;;;6.10;99.90;;;;;;2622036;47;20034;31
2022/02/20 10:51:40;;;;;;;6.30;2.40;;;6.20;99.90;;;;;;2603844;54;20033;31
2022/02/20 10:54:17;;;;;;;3.40;1.65;;;6.20;99.90;;;;;;2622323;46;20113;31
2022/02/20 10:56:51;;;;;;;5.43;2.33;;;6.30;99.90;;;;;;2602999;54;20038;31
2022/02/20 10:59:27;;;;;;;4.47;2.20;;;6.40;99.90;;;;;;2603663;54;20939;31
2022/02/20 11:02:16;;;;;;;5.28;2.28;;;6.40;99.90;;;;;;2603860;54;20030;31
2022/02/20 11:04:50;;;;;;;6.25;1.90;;;6.50;99.90;;;;;;2604113;54;20023;31
2022/02/20 11:07:24;;;;;;;6.07;3.58;;;6.60;99.90;;;;;;2603943;54;20832;31
2022/02/20 11:10:01;;;;;;;5.90;2.13;;;6.60;99.90;;;;;;2603930;54;20022;31
2022/02/20 11:12:37;;;;;;;4.50;2.33;;;6.70;99.90;;;;;;2603772;54;20038;31
2022/02/20 11:15:13;;;;;;;8.65;2.42;;;6.80;99.90;;;;;;2604062;54;20026;31
2022/02/20 11:17:48;;;;;;;3.30;1.58;;;6.90;99.90;;;;;;2603961;54;19957;31
2022/02/20 11:20:23;;;;;;;4.45;2.10;;;7.00;99.90;;;;;;2622482;46;20026;31
2022/02/20 11:22:58;;;;;;;3.25;1.20;;;7.00;99.90;;;;;;2603802;54;20031;31
2022/02/20 11:25:36;;;;;;;3.60;1.23;;;7.10;99.90;;;;;;2603891;54;20481;31
2022/02/20 11:28:10;;;;;;;3.70;1.30;;;7.20;99.90;;;;;;2773030;31;21415;31
2022/02/20 11:30:45;;;;;;;3.35;1.50;;;7.50;99.90;;;;;;2603294;54;21184;31
2022/02/20 11:33:19;;;;;;;3.00;1.40;;;7.70;99.90;;;;;;2622542;46;20058;31
2022/02/20 11:35:54;;;;;;;4.03;1.50;;;7.90;99.90;;;;;;2603911;54;20033;31
2022/02/20 11:38:28;;;;;;;2.65;1.30;;;8.00;99.90;;;;;;2603757;54;21004;31
2022/02/20 11:41:11;;;;;;;3.45;1.40;;;8.20;99.90;;;;;;2604094;54;20775;31
2022/02/20 11:43:45;;;;;;;3.55;1.10;;;8.40;99.90;;;;;;2773951;31;21306;31
2022/02/20 11:46:24;;;;;;;4.07;1.15;;;8.50;99.90;;;;;;2603873;54;21031;31
2022/02/20 11:49:30;;;;;;;4.35;1.23;;;8.60;99.90;;;;;;2603663;54;20874;31
2022/02/20 11:52:09;;;;;;;3.83;1.48;;;8.60;99.90;;;;;;2622608;46;20121;31
2022/02/20 11:54:44;;;;;;;3.03;1.17;;;8.60;99.90;;;;;;2603690;54;20013;31
2022/02/20 11:57:34;;;;;;;2.20;1.15;;;8.60;99.90;;;;;;2622175;46;20050;31
2022/02/20 12:00:18;;;;;;;2.50;0.93;;;8.60;99.90;;;;;;2603625;54;20822;31
2022/02/20 12:03:06;;;;;;;2.55;0.80;;;8.70;99.90;;;;;;2621845;46;20957;31
2022/02/20 12:05:41;;;;;;;3.30;1.20;;;8.80;99.90;;;;;;2604059;54;20897;31
2022/02/20 12:08:34;;;;;;;3.20;1.02;;;8.90;99.90;;;;;;2603750;54;20038;31
2022/02/20 12:11:12;;;;;;;2.70;0.65;;;8.90;99.90;;;;;;2603822;54;20624;31
2022/02/20 12:13:54;;;;;;;3.45;1.17;;;9.00;99.90;;;;;;2603902;54;20030;31
2022/02/20 12:16:30;;;;;;;4.20;0.88;;;9.10;99.90;;;;;;2603725;54;20882;31
2022/02/20 12:19:09;;;;;;;3.90;0.70;;;9.10;99.90;;;;;;2603846;54;20022;31
2022/02/20 12:22:03;;;;;;;4.50;1.20;;;9.10;99.90;;;;;;2603719;54;20860;31
2022/02/20 12:24:51;;;;;;;2.80;1.00;;;9.10;99.90;;;;;;2604026;54;20081;31
2022/02/20 12:27:27;;;;;;;2.17;0.93;;;9.00;99.90;;;;;;2622669;46;20884;31
2022/02/20 12:30:07;;;;;;;2.25;0.75;;;9.00;99.90;;;;;;2603136;54;20040;31
2022/02/20 12:32:42;;;;;;;2.88;0.70;;;9.00;99.90;;;;;;2603595;54;20098;31
2022/02/20 12:35:20;;;;;;;3.80;0.77;;;9.00;99.90;;;;;;2603555;54;20534;31
2022/02/20 12:37:55;;;;;;;2.90;0.80;;;9.00;99.90;;;;;;2603614;54;20973;31
2022/02/20 12:40:31;;;;;;;2.47;0.85;;;9.00;99.90;;;;;;2603532;54;20802;31
2022/02/20 12:43:07;;;;;;;3.45;0.85;;;9.10;99.90;;;;;;2603637;54;20031;31
2022/02/20 12:45:45;;;;;;;3.40;1.00;;;9.10;99.90;;;;;;2603642;54;20031;31
2022/02/20 12:48:20;;;;;;;2.97;0.88;;;9.10;99.90;;;;;;2622027;46;20030;31
2022/02/20 12:50:54;;;;;;;2.95;1.30;;;9.20;99.90;;;;;;2603616;54;20031;31
2022/02/20 12:53:31;;;;;;;4.00;1.27;;;9.30;99.90;;;;;;2702034;39;20593;31
2022/02/20 12:56:16;;;;;;;4.35;1.23;;;9.40;99.90;;;;;;2603541;54;20052;31
2022/02/20 12:58:51;;;;;;;3.95;0.75;;;9.50;99.90;;;;;;2603531;54;20137;31
2022/02/20 13:01:28;;;;;;;2.85;1.10;;;9.40;99.90;;;;;;2603680;54;20101;31
2022/02/20 13:04:02;;;;;;;4.68;1.52;;;9.40;99.90;;;;;;2622389;46;20895;31
2022/02/20 13:06:38;;;;;;;18.05;1.88;;;9.40;99.90;;;;;;2603675;54;20072;31
2022/02/20 13:09:10;;;;;;;5.65;1.77;;;9.40;99.90;;;;;;2720530;39;22400;31
2022/02/20 13:11:47;;;;;;;3.85;1.38;;;9.40;99.90;;;;;;2622020;46;20053;31
2022/02/20 13:14:22;;;;;;;2.33;1.15;;;9.50;99.90;;;;;;2621737;46;20154;31
2022/02/20 13:17:00;;;;;;;7.55;1.40;;;9.50;99.90;;;;;;2622227;46;20053;31
2022/02/20 13:19:35;;;;;;;2.67;0.85;;;9.50;99.90;;;;;;2603523;54;20053;31
2022/02/20 13:22:13;;;;;;;3.83;1.10;;;9.40;99.90;;;;;;2603474;54;20121;31
2022/02/20 13:24:58;;;;;;;3.47;1.33;;;9.40;99.90;;;;;;2622009;46;20945;31
2022/02/20 13:27:33;;;;;;;3.50;1.60;;;9.40;99.90;;;;;;2603657;54;20026;31
2022/02/20 13:30:07;;;;;;;4.63;1.57;;;9.40;99.90;;;;;;2603638;54;20838;31
2022/02/20 13:32:44;;;;;;;4.85;1.40;;;9.40;99.90;;;;;;2603613;54;21140;31
2022/02/20 13:35:19;;;;;;;2.90;1.15;;;9.50;99.90;;;;;;2603426;54;20858;31
2022/02/20 13:37:54;;;;;;;4.20;0.85;;;9.50;99.90;;;;;;2603137;54;20875;31
2022/02/20 13:40:36;;;;;;;3.80;1.13;;;9.50;99.90;;;;;;2603304;54;20034;31
2022/02/20 13:43:11;;;;;;;4.28;1.05;;;9.50;99.90;;;;;;2610114;46;20908;31
2022/02/20 13:45:53;;;;;;;6.88;1.50;;;9.50;99.90;;;;;;2620987;46;20863;31
2022/02/20 13:48:32;;;;;;;3.50;1.15;;;9.60;99.90;;;;;;2603278;54;20639;31
2022/02/20 13:51:18;;;;;;;5.40;1.38;;;9.60;99.90;;;;;;2603297;54;25060;31
2022/02/20 14:06:52;;;;;;;5.45;1.80;;;9.60;99.90;;;;;;2603420;54;20022;31
2022/02/20 14:09:38;;;;;;;5.97;1.77;;;9.50;99.90;;;;;;2603199;54;20157;31
2022/02/20 14:12:28;;;;;;;7.90;2.58;;;9.50;99.90;;;;;;2603408;54;20849;31
2022/02/20 14:15:11;;;;;;;7.45;2.50;;;9.40;99.90;;;;;;2621494;46;20023;31
2022/02/20 14:17:56;;;;;;;5.55;2.10;;;9.50;99.90;;;;;;2603445;54;19934;31
2022/02/20 14:20:32;;;;;;;4.75;2.25;;;9.50;99.90;;;;;;2603216;54;22348;31